createdAt,value
2022-09-16T00:01:31.837Z,16.32
2022-09-16T00:03:58.343Z,16.59
2022-09-16T00:06:28.117Z,16.62
2022-09-16T00:08:55.572Z,16.51
2022-09-16T00:11:22.730Z,16.41
2022-09-16T00:13:49.390Z,16.03
2022-09-16T00:16:27.552Z,16.49
2022-09-16T00:18:59.829Z,16.42
2022-09-16T00:21:28.506Z,16.40
2022-09-16T00:23:58.124Z,16.20
2022-09-16T00:26:25.858Z,16.13
2022-09-16T00:28:52.581Z,16.45
2022-09-16T00:31:19.610Z,16.28
2022-09-16T00:33:46.426Z,16.24
2022-09-16T00:36:15.839Z,16.34
2022-09-16T00:38:43.213Z,16.27
2022-09-16T00:41:16.349Z,16.16
2022-09-16T00:43:54.939Z,16.21
2022-09-16T00:46:28.308Z,15.96
2022-09-16T00:48:55.067Z,16.11
2022-09-16T00:51:22.768Z,16.08
2022-09-16T00:53:59.954Z,16.06
2022-09-16T00:56:29.221Z,16.23
2022-09-16T00:59:06.195Z,16.02
2022-09-16T01:01:32.906Z,16.13
2022-09-16T01:04:04.076Z,16.23
2022-09-16T01:06:32.339Z,15.42
2022-09-16T01:08:59.943Z,16.05
2022-09-16T01:11:26.967Z,16.20
2022-09-16T01:13:53.877Z,16.12
2022-09-16T01:16:34.344Z,16.12
2022-09-16T01:19:19.062Z,16.37
2022-09-16T01:22:00.537Z,16.42
2022-09-16T01:24:34.420Z,16.44
2022-09-16T01:27:25.609Z,16.36
2022-09-16T01:30:21.114Z,16.28
2022-09-16T01:33:08.774Z,16.32
2022-09-16T01:35:47.947Z,16.27
2022-09-16T01:38:26.141Z,16.19
2022-09-16T01:41:13.815Z,16.37
2022-09-16T01:44:32.892Z,16.42
2022-09-16T01:47:03.260Z,16.46
2022-09-16T01:49:38.978Z,16.41
2022-09-16T01:52:11.679Z,16.19
2022-09-16T01:54:41.604Z,16.43
2022-09-16T01:57:13.807Z,16.44
2022-09-16T01:59:54.364Z,16.32
2022-09-16T02:02:32.899Z,16.40
2022-09-16T02:05:03.724Z,16.45
2022-09-16T02:07:35.161Z,16.39
2022-09-16T02:10:20.312Z,16.08
2022-09-16T02:12:50.979Z,15.87
2022-09-16T02:15:22.596Z,15.92
2022-09-16T02:17:56.658Z,15.80
2022-09-16T02:20:27.384Z,15.95
2022-09-16T02:23:09.632Z,15.95
2022-09-16T02:25:39.533Z,15.81
2022-09-16T02:28:13.171Z,15.67
2022-09-16T02:30:45.053Z,15.89
2022-09-16T02:33:15.163Z,15.77
2022-09-16T02:35:47.668Z,15.78
2022-09-16T02:38:34.973Z,15.69
2022-09-16T02:41:02.261Z,15.86
2022-09-16T02:43:29.704Z,15.78
2022-09-16T02:46:02.376Z,15.89
2022-09-16T02:48:35.633Z,16.02
2022-09-16T02:51:23.988Z,16.11
2022-09-16T02:54:03.117Z,16.13
2022-09-16T02:56:34.541Z,16.24
2022-09-16T02:59:02.589Z,15.58
2022-09-16T03:01:32.313Z,16.20
2022-09-16T03:03:58.832Z,16.35
2022-09-16T03:06:27.567Z,16.39
2022-09-16T03:08:58.541Z,16.42
2022-09-16T03:11:49.904Z,16.44
2022-09-16T03:14:19.475Z,16.50
2022-09-16T03:17:02.944Z,16.46
2022-09-16T03:19:48.166Z,16.53
2022-09-16T03:22:24.275Z,16.43
2022-09-16T03:25:16.903Z,16.43
2022-09-16T03:28:09.055Z,16.50
2022-09-16T03:30:43.588Z,16.40
2022-09-16T03:33:20.850Z,16.12
2022-09-16T03:35:49.740Z,16.43
2022-09-16T03:38:18.652Z,16.29
2022-09-16T03:40:48.452Z,16.34
2022-09-16T03:43:16.647Z,16.35
2022-09-16T03:45:43.976Z,16.29
2022-09-16T03:48:12.357Z,16.38
2022-09-16T03:50:39.014Z,16.35
2022-09-16T03:53:05.825Z,16.39
2022-09-16T03:55:32.480Z,16.32
2022-09-16T03:57:59.117Z,16.31
2022-09-16T04:00:25.770Z,16.37
2022-09-16T04:02:52.470Z,16.36
2022-09-16T04:05:19.081Z,16.38
2022-09-16T04:07:45.887Z,16.38
2022-09-16T04:10:12.695Z,16.36
2022-09-16T04:12:39.305Z,16.25
2022-09-16T04:15:06.648Z,16.38
2022-09-16T04:17:34.133Z,16.32
2022-09-16T04:20:01.211Z,16.28
2022-09-16T04:22:31.835Z,16.17
2022-09-16T04:24:58.508Z,16.14
2022-09-16T04:27:25.124Z,16.31
2022-09-16T04:29:51.729Z,16.17
2022-09-16T04:32:18.387Z,16.39
2022-09-16T04:34:45.806Z,16.48
2022-09-16T04:37:12.460Z,16.63
2022-09-16T04:39:39.086Z,16.64
2022-09-16T04:42:07.032Z,16.67
2022-09-16T04:44:33.859Z,16.54
2022-09-16T04:47:00.623Z,16.56
2022-09-16T04:49:27.263Z,16.69
2022-09-16T04:51:53.959Z,16.61
2022-09-16T04:54:20.623Z,16.65
2022-09-16T04:56:47.263Z,16.57
2022-09-16T04:59:13.875Z,16.68
2022-09-16T05:01:40.781Z,16.60
2022-09-16T05:04:08.043Z,16.79
2022-09-16T05:06:37.072Z,16.61
2022-09-16T05:09:04.516Z,16.57
2022-09-16T05:11:33.962Z,16.61
2022-09-16T05:14:02.515Z,16.60
2022-09-16T05:16:29.938Z,16.60
2022-09-16T05:18:58.664Z,16.64
2022-09-16T05:21:27.433Z,16.49
2022-09-16T05:23:56.001Z,16.57
2022-09-16T05:26:25.604Z,16.52
2022-09-16T05:28:52.799Z,16.52
2022-09-16T05:31:25.315Z,16.34
2022-09-16T05:34:13.599Z,16.58
2022-09-16T05:36:43.793Z,16.69
2022-09-16T05:39:22.736Z,16.65
2022-09-16T05:41:50.756Z,16.78
2022-09-16T05:44:17.388Z,16.65
2022-09-16T05:46:44.004Z,16.59
2022-09-16T05:49:11.056Z,16.86
2022-09-16T05:51:39.133Z,16.99
2022-09-16T05:54:06.031Z,16.98
2022-09-16T05:56:33.053Z,16.42
2022-09-16T05:59:01.028Z,16.85
2022-09-16T06:01:31.019Z,16.78
2022-09-16T06:03:58.399Z,16.67
2022-09-16T06:06:33.685Z,16.33
2022-09-16T06:09:05.999Z,16.73
2022-09-16T06:11:37.101Z,16.92
2022-09-16T06:14:04.230Z,16.89
2022-09-16T06:16:33.258Z,16.83
2022-09-16T06:19:02.912Z,17.04
2022-09-16T06:21:29.812Z,17.06
2022-09-16T06:23:57.151Z,16.99
2022-09-16T06:26:26.043Z,16.89
2022-09-16T06:28:53.596Z,16.91
2022-09-16T06:31:23.220Z,17.05
2022-09-16T06:33:50.591Z,17.22
2022-09-16T06:36:20.742Z,17.10
2022-09-16T06:38:48.029Z,17.07
2022-09-16T06:41:15.982Z,17.19
2022-09-16T06:43:43.131Z,17.04
2022-09-16T06:46:16.255Z,16.84
2022-09-16T06:48:45.225Z,17.19
2022-09-16T06:51:17.270Z,16.98
2022-09-16T06:53:45.015Z,17.28
2022-09-16T06:56:14.189Z,17.23
2022-09-16T06:58:42.940Z,17.45
2022-09-16T07:01:10.977Z,17.39
2022-09-16T07:03:39.829Z,17.36
2022-09-16T07:06:07.416Z,17.47
2022-09-16T07:08:35.626Z,17.47
2022-09-16T07:11:04.154Z,17.29
2022-09-16T07:13:31.248Z,17.10
2022-09-16T07:16:13.004Z,17.12
2022-09-16T07:18:41.355Z,16.89
2022-09-16T07:21:16.962Z,16.92
2022-09-16T07:23:44.555Z,16.87
2022-09-16T07:26:14.001Z,16.85
2022-09-16T07:28:42.026Z,16.76
2022-09-16T07:31:18.758Z,16.99
2022-09-16T07:33:48.285Z,17.28
2022-09-16T07:36:19.121Z,17.42
2022-09-16T07:38:46.594Z,17.24
2022-09-16T07:41:23.243Z,17.27
2022-09-16T07:43:50.747Z,17.49
2022-09-16T07:46:19.873Z,17.57
2022-09-16T07:48:48.913Z,17.40
2022-09-16T07:51:18.478Z,17.07
2022-09-16T07:53:46.581Z,17.48
2022-09-16T07:56:16.531Z,17.69
2022-09-16T07:58:45.420Z,17.40
2022-09-16T08:01:13.318Z,17.33
2022-09-16T08:03:40.174Z,17.41
2022-09-16T08:06:09.724Z,17.68
2022-09-16T08:08:36.832Z,17.82
2022-09-16T08:11:04.388Z,17.78
2022-09-16T08:13:33.400Z,17.86
2022-09-16T08:16:03.483Z,17.92
2022-09-16T08:18:30.884Z,18.14
2022-09-16T08:20:59.401Z,18.27
2022-09-16T08:23:26.001Z,18.52
2022-09-16T08:25:59.688Z,18.83
2022-09-16T08:28:39.627Z,18.72
2022-09-16T08:31:15.092Z,18.26
2022-09-16T08:33:42.319Z,18.30
2022-09-16T08:36:23.368Z,18.35
2022-09-16T08:38:56.970Z,18.69
2022-09-16T08:41:29.439Z,18.74
2022-09-16T08:44:14.140Z,19.04
2022-09-16T08:46:55.371Z,18.53
2022-09-16T08:49:31.039Z,18.73
2022-09-16T08:52:00.845Z,18.89
2022-09-16T08:54:34.709Z,18.75
2022-09-16T08:57:04.979Z,18.94
2022-09-16T08:59:39.698Z,19.11
2022-09-16T09:02:22.249Z,19.23
2022-09-16T09:04:49.499Z,19.29
2022-09-16T09:08:00.730Z,19.12
2022-09-16T09:10:48.423Z,19.37
2022-09-16T09:13:30.967Z,18.82
2022-09-16T09:16:12.731Z,19.06
2022-09-16T09:18:59.417Z,19.29
2022-09-16T09:21:41.264Z,19.22
2022-09-16T09:24:07.879Z,19.11
2022-09-16T09:26:43.667Z,18.99
2022-09-16T09:29:48.000Z,18.90
2022-09-16T09:32:48.492Z,18.46
2022-09-16T09:35:34.727Z,18.53
2022-09-16T09:38:07.259Z,18.41
2022-09-16T09:40:46.018Z,18.26
2022-09-16T09:43:20.738Z,18.11
2022-09-16T09:45:59.606Z,18.10
2022-09-16T09:48:33.243Z,18.13
2022-09-16T09:51:05.701Z,18.26
2022-09-16T09:53:41.368Z,18.04
2022-09-16T09:56:07.927Z,18.12
2022-09-16T09:58:41.156Z,18.40
2022-09-16T10:01:09.077Z,18.45
2022-09-16T10:03:37.984Z,18.43
2022-09-16T10:06:05.021Z,18.42
2022-09-16T10:08:43.687Z,18.41
2022-09-16T10:11:22.737Z,18.38
2022-09-16T10:13:52.253Z,18.24
2022-09-16T10:16:22.056Z,18.37
2022-09-16T10:19:06.879Z,18.40
2022-09-16T10:21:47.651Z,18.53
2022-09-16T10:24:34.128Z,18.65
2022-09-16T10:27:03.062Z,18.34
2022-09-16T10:29:29.786Z,18.13
2022-09-16T10:31:58.638Z,17.98
2022-09-16T10:34:34.405Z,18.16
2022-09-16T10:37:13.301Z,18.27
2022-09-16T10:39:44.944Z,18.04
2022-09-16T10:42:23.464Z,18.18
2022-09-16T10:44:53.599Z,18.59
2022-09-16T10:47:29.190Z,18.57
2022-09-16T10:50:03.472Z,18.27
2022-09-16T10:52:42.988Z,18.40
2022-09-16T10:55:27.049Z,18.43
2022-09-16T10:58:05.981Z,18.45
2022-09-16T11:00:45.627Z,18.28
2022-09-16T11:03:36.240Z,18.56
2022-09-16T11:06:08.678Z,18.64
2022-09-16T11:09:29.419Z,18.00
2022-09-16T11:11:56.016Z,18.23
2022-09-16T11:14:31.582Z,18.00
2022-09-16T11:17:25.264Z,18.03
2022-09-16T11:20:10.896Z,17.90
2022-09-16T11:23:06.569Z,17.90
2022-09-16T11:26:14.747Z,17.67
2022-09-16T11:28:50.652Z,17.45
2022-09-16T11:31:20.199Z,17.47
2022-09-16T11:34:18.275Z,17.24
2022-09-16T11:37:15.970Z,17.28
2022-09-16T11:40:01.116Z,17.40
2022-09-16T11:42:37.392Z,17.23
2022-09-16T11:45:07.085Z,17.10
2022-09-16T11:47:37.131Z,17.13
2022-09-16T11:50:49.811Z,17.24
2022-09-16T11:53:31.231Z,17.76
2022-09-16T11:56:18.556Z,17.91
2022-09-16T11:58:51.025Z,18.24
2022-09-16T12:01:28.524Z,17.83
2022-09-16T12:04:26.135Z,18.41
2022-09-16T12:07:19.743Z,19.01
2022-09-16T12:09:57.555Z,18.75
2022-09-16T12:12:31.576Z,18.83
2022-09-16T12:15:16.418Z,18.28
2022-09-16T12:17:51.451Z,18.35
2022-09-16T12:20:29.896Z,18.42
2022-09-16T12:23:09.904Z,18.18
2022-09-16T12:26:06.285Z,18.36
2022-09-16T12:28:40.497Z,18.62
2022-09-16T12:31:47.521Z,18.36
2022-09-16T12:34:33.987Z,18.08
2022-09-16T12:37:15.125Z,17.94
2022-09-16T12:39:42.756Z,18.43
2022-09-16T12:42:12.508Z,18.60
2022-09-16T12:44:47.186Z,18.41
2022-09-16T12:47:35.662Z,18.63
2022-09-16T12:50:20.479Z,18.69
2022-09-16T12:53:03.456Z,18.21
2022-09-16T12:55:53.601Z,18.38
2022-09-16T12:58:44.726Z,18.67
2022-09-16T13:01:25.511Z,19.18
2022-09-16T13:03:59.654Z,19.20
2022-09-16T13:06:33.716Z,18.78
2022-09-16T13:09:15.701Z,18.29
2022-09-16T13:14:43.365Z,18.69
2022-09-16T13:17:12.577Z,18.65
2022-09-16T13:19:52.185Z,18.15
2022-09-16T13:22:21.680Z,18.41
2022-09-16T13:25:10.083Z,18.41
2022-09-16T13:27:52.481Z,18.14
2022-09-16T13:30:27.897Z,18.11
2022-09-16T13:32:54.459Z,17.77
2022-09-16T13:35:35.248Z,17.72
2022-09-16T13:38:22.531Z,17.25
2022-09-16T13:41:00.781Z,17.56
2022-09-16T13:43:37.381Z,17.25
2022-09-16T13:49:11.119Z,16.91
2022-09-16T13:51:45.434Z,16.90
2022-09-16T13:55:10.012Z,16.80
2022-09-16T13:57:53.175Z,17.11
2022-09-16T14:00:22.782Z,17.25
2022-09-16T14:03:13.808Z,17.29
2022-09-16T14:06:02.102Z,17.29
2022-09-16T14:08:44.681Z,17.30
2022-09-16T14:11:52.719Z,17.59
2022-09-16T14:17:26.067Z,17.69
2022-09-16T14:19:57.585Z,17.95
2022-09-16T14:22:27.366Z,18.04
2022-09-16T14:25:05.812Z,17.89
2022-09-16T14:27:40.521Z,17.52
2022-09-16T14:30:14.793Z,17.60
2022-09-16T14:32:41.569Z,17.44
2022-09-16T14:35:19.592Z,17.05
2022-09-16T14:37:49.738Z,16.86
2022-09-16T14:40:19.830Z,16.60
2022-09-16T14:42:57.182Z,16.69
2022-09-16T14:45:24.325Z,16.69
2022-09-16T14:47:54.432Z,16.28
2022-09-16T14:50:23.638Z,16.61
2022-09-16T14:52:59.167Z,16.63
2022-09-16T14:55:30.275Z,16.73
2022-09-16T14:57:58.177Z,16.77
2022-09-16T15:00:46.705Z,16.88
2022-09-16T15:03:26.141Z,16.59
2022-09-16T15:05:55.552Z,16.71
2022-09-16T15:08:39.657Z,16.49
2022-09-16T15:11:43.560Z,16.43
2022-09-16T15:14:07.413Z,16.24
2022-09-16T15:16:39.900Z,16.35
2022-09-16T15:19:07.076Z,15.93
2022-09-16T15:21:38.047Z,16.19
2022-09-16T15:24:16.029Z,16.29
2022-09-16T15:26:44.998Z,16.38
2022-09-16T15:29:17.816Z,16.55
2022-09-16T15:31:45.881Z,16.46
2022-09-16T15:34:21.666Z,16.34
2022-09-16T15:36:53.739Z,16.36
2022-09-16T15:39:39.029Z,16.39
2022-09-16T15:42:31.930Z,16.35
2022-09-16T15:45:01.401Z,16.26
2022-09-16T15:47:54.399Z,16.21
2022-09-16T15:50:22.741Z,16.01
2022-09-16T15:52:49.285Z,16.05
2022-09-16T15:55:56.071Z,15.96
2022-09-16T15:58:41.882Z,15.80
2022-09-16T16:01:42.152Z,16.08
2022-09-16T16:04:11.498Z,15.91
2022-09-16T16:06:55.224Z,15.83
2022-09-16T16:09:28.039Z,15.88
2022-09-16T16:11:59.032Z,15.76
2022-09-16T16:14:32.241Z,15.56
2022-09-16T16:17:18.833Z,15.71
2022-09-16T16:19:47.564Z,15.74
2022-09-16T16:22:14.865Z,15.65
2022-09-16T16:24:42.125Z,15.42
2022-09-16T16:27:09.714Z,15.38
2022-09-16T16:29:36.701Z,15.45
2022-09-16T16:32:12.010Z,15.46
2022-09-16T16:34:41.555Z,15.42
2022-09-16T16:37:09.701Z,15.32
2022-09-16T16:39:36.775Z,15.27
2022-09-16T16:42:05.679Z,15.07
2022-09-16T16:44:33.266Z,15.25
2022-09-16T16:47:00.360Z,15.05
2022-09-16T16:49:27.049Z,15.06
2022-09-16T16:52:00.453Z,15.05
2022-09-16T16:54:28.309Z,15.10
2022-09-16T16:56:55.832Z,14.85
2022-09-16T16:59:23.753Z,14.83
2022-09-16T17:01:57.566Z,14.65
2022-09-16T17:04:25.499Z,14.75
2022-09-16T17:07:14.443Z,14.79
2022-09-16T17:09:38.849Z,14.92
2022-09-16T17:12:05.909Z,14.78
2022-09-16T17:14:33.425Z,14.43
2022-09-16T17:17:02.837Z,14.82
2022-09-16T17:19:29.465Z,14.66
2022-09-16T17:21:57.727Z,14.59
2022-09-16T17:24:24.627Z,14.24
2022-09-16T17:26:52.277Z,13.84
2022-09-16T17:29:19.042Z,13.91
2022-09-16T17:31:46.538Z,13.86
2022-09-16T17:34:15.172Z,13.80
2022-09-16T17:36:44.863Z,13.68
2022-09-16T17:39:17.424Z,13.79
2022-09-16T17:41:45.695Z,13.73
2022-09-16T17:44:13.750Z,13.84
2022-09-16T17:46:42.306Z,13.70
2022-09-16T17:49:18.738Z,13.71
2022-09-16T17:51:45.424Z,13.50
2022-09-16T17:54:12.688Z,13.72
2022-09-16T17:56:39.715Z,13.70
2022-09-16T17:59:06.375Z,13.62
2022-09-16T18:01:34.077Z,13.41
2022-09-16T18:04:02.101Z,13.58
2022-09-16T18:06:31.799Z,13.53
2022-09-16T18:09:03.898Z,13.64
2022-09-16T18:11:30.818Z,13.35
2022-09-16T18:14:00.697Z,13.54
2022-09-16T18:16:27.929Z,13.71
2022-09-16T18:18:58.142Z,13.62
2022-09-16T18:21:25.829Z,13.55
2022-09-16T18:23:55.251Z,13.57
2022-09-16T18:26:22.619Z,13.59
2022-09-16T18:29:09.072Z,13.96
2022-09-16T18:31:36.563Z,14.20
2022-09-16T18:34:03.261Z,13.44
2022-09-16T18:36:31.944Z,14.09
2022-09-16T18:38:59.105Z,13.93
2022-09-16T18:41:28.682Z,13.75
2022-09-16T18:43:58.858Z,13.69
2022-09-16T18:46:28.926Z,13.68
2022-09-16T18:48:56.416Z,14.03
2022-09-16T18:51:51.996Z,13.62
2022-09-16T18:54:30.571Z,13.96
2022-09-16T18:56:59.865Z,13.63
2022-09-16T18:59:29.143Z,13.45
2022-09-16T19:01:58.838Z,13.03
2022-09-16T19:04:27.278Z,13.47
2022-09-16T19:06:57.049Z,13.45
2022-09-16T19:09:24.511Z,13.48
2022-09-16T19:11:54.000Z,13.23
2022-09-16T19:14:24.262Z,13.31
2022-09-16T19:16:51.101Z,12.83
2022-09-16T19:19:17.693Z,13.34
2022-09-16T19:21:44.517Z,13.42
2022-09-16T19:24:14.675Z,13.69
2022-09-16T19:26:42.938Z,13.67
2022-09-16T19:29:10.785Z,12.91
2022-09-16T19:31:39.988Z,13.24
2022-09-16T19:34:07.898Z,13.20
2022-09-16T19:36:36.376Z,13.27
2022-09-16T19:39:05.206Z,13.15
2022-09-16T19:41:33.278Z,13.53
2022-09-16T19:44:03.822Z,13.35
2022-09-16T19:46:34.394Z,12.60
2022-09-16T19:49:01.492Z,13.27
2022-09-16T19:51:29.106Z,13.56
2022-09-16T19:53:56.020Z,13.70
2022-09-16T19:56:25.941Z,13.31
2022-09-16T19:58:53.718Z,13.53
2022-09-16T20:01:27.194Z,13.28
2022-09-16T20:03:54.820Z,13.40
2022-09-16T20:06:25.976Z,13.84
2022-09-16T20:08:55.911Z,13.81
2022-09-16T20:11:25.049Z,13.99
2022-09-16T20:13:58.232Z,13.73
2022-09-16T20:16:28.769Z,13.84
2022-09-16T20:18:55.460Z,13.81
2022-09-16T20:21:25.134Z,13.85
2022-09-16T20:23:53.395Z,13.93
2022-09-16T20:26:20.876Z,13.46
2022-09-16T20:28:52.963Z,13.31
2022-09-16T20:31:25.471Z,13.96
2022-09-16T20:33:52.741Z,13.81
2022-09-16T20:36:22.596Z,13.97
2022-09-16T20:38:49.451Z,13.94
2022-09-16T20:41:19.106Z,13.80
2022-09-16T20:43:46.611Z,13.89
2022-09-16T20:46:16.389Z,13.72
2022-09-16T20:48:43.339Z,13.87
2022-09-16T20:51:15.394Z,13.81
2022-09-16T20:53:44.275Z,13.88
2022-09-16T20:56:13.830Z,13.77
2022-09-16T20:58:41.543Z,13.90
2022-09-16T21:01:11.892Z,13.91
2022-09-16T21:03:39.665Z,13.74
2022-09-16T21:06:17.276Z,13.46
2022-09-16T21:08:44.374Z,13.30
2022-09-16T21:11:12.549Z,13.67
2022-09-16T21:13:41.425Z,13.76
2022-09-16T21:16:11.378Z,13.52
2022-09-16T21:18:39.127Z,12.99
2022-09-16T21:21:11.488Z,13.52
2022-09-16T21:23:38.917Z,13.32
2022-09-16T21:26:15.576Z,13.84
2022-09-16T21:28:43.468Z,13.77
2022-09-16T21:31:13.365Z,13.38
2022-09-16T21:33:41.856Z,13.12
2022-09-16T21:36:11.411Z,13.10
2022-09-16T21:38:38.905Z,12.75
2022-09-16T21:41:09.149Z,13.09
2022-09-16T21:43:43.495Z,13.11
2022-09-16T21:46:14.434Z,13.28
2022-09-16T21:48:42.559Z,13.53
2022-09-16T21:51:12.653Z,13.32
2022-09-16T21:53:43.077Z,13.43
2022-09-16T21:56:15.858Z,13.51
2022-09-16T21:58:43.009Z,13.41
2022-09-16T22:01:21.424Z,13.24
2022-09-16T22:03:55.239Z,12.96
2022-09-16T22:06:22.687Z,13.10
2022-09-16T22:08:50.182Z,13.03
2022-09-16T22:11:18.741Z,13.19
2022-09-16T22:13:45.793Z,13.47
2022-09-16T22:16:17.273Z,13.73
2022-09-16T22:18:45.131Z,13.68
2022-09-16T22:21:13.721Z,13.62
2022-09-16T22:23:41.110Z,13.51
2022-09-16T22:26:10.765Z,13.23
2022-09-16T22:28:38.356Z,13.66
2022-09-16T22:31:16.535Z,13.68
2022-09-16T22:33:44.835Z,13.64
2022-09-16T22:36:17.306Z,13.66
2022-09-16T22:38:52.411Z,13.69
2022-09-16T22:41:19.545Z,13.66
2022-09-16T22:43:48.255Z,13.69
2022-09-16T22:46:20.772Z,13.51
2022-09-16T22:48:48.657Z,13.76
2022-09-16T22:51:17.011Z,13.74
2022-09-16T22:53:44.824Z,13.57
2022-09-16T22:56:13.874Z,13.75
2022-09-16T22:58:40.660Z,13.24
2022-09-16T23:01:16.329Z,13.70
2022-09-16T23:03:44.802Z,13.51
2022-09-16T23:06:14.374Z,13.69
2022-09-16T23:08:43.693Z,13.52
2022-09-16T23:11:14.605Z,13.64
2022-09-16T23:13:42.355Z,13.18
2022-09-16T23:16:18.062Z,13.66
2022-09-16T23:18:46.448Z,13.66
2022-09-16T23:21:19.453Z,13.69
2022-09-16T23:23:48.594Z,13.57
2022-09-16T23:26:23.639Z,13.55
2022-09-16T23:28:52.791Z,13.63
2022-09-16T23:31:23.149Z,13.45
2022-09-16T23:33:50.273Z,13.30
2022-09-16T23:36:18.087Z,13.50
2022-09-16T23:38:45.967Z,13.34
2022-09-16T23:41:19.729Z,13.61
2022-09-16T23:43:48.042Z,13.46
2022-09-16T23:46:17.576Z,13.44
2022-09-16T23:48:44.792Z,13.22
2022-09-16T23:51:12.451Z,13.07
2022-09-16T23:53:40.368Z,13.37
2022-09-16T23:56:08.813Z,13.33
2022-09-16T23:58:35.499Z,12.74
